Time;durP1;ratioP1;P1;durP2;ratioP2;P2;SDS_P1;SDS_P2;PMS_P1;PMS_P2;Temp;Humidity;BMP_temperature;BMP_pressure;BME280_temperature;BME280_humidity;BME280_pressure;Samples;Min_cycle;Max_cycle;Signal;HPM_P1;HPM_P2
2022/05/08 00:02:03;;;;;;;;;;;;;;;;;;5015459;28;19980;-72
2022/05/08 00:04:29;;;;;;;;;;;;;;;;;;5015427;28;19910;-72
2022/05/08 00:06:55;;;;;;;;;;;;;;;;;;5016292;28;19916;-72
2022/05/08 00:09:21;;;;;;;;;;;;;;;;;;5015665;28;20255;-72
2022/05/08 00:11:47;;;;;;;;;;;;;;;;;;5015163;28;19920;-72
2022/05/08 00:14:13;;;;;;;;;;;;;;;;;;5015516;28;19909;-72
2022/05/08 00:16:39;;;;;;;;;;;;;;;;;;5016147;28;20229;-72
2022/05/08 00:19:05;;;;;;;;;;;;;;;;;;5015515;28;19953;-72
2022/05/08 00:21:31;;;;;;;;;;;;;;;;;;5015697;28;19914;-72
2022/05/08 00:23:57;;;;;;;;;;;;;;;;;;5015984;28;19999;-72
2022/05/08 00:26:23;;;;;;;;;;;;;;;;;;5014906;28;19925;-72
2022/05/08 00:28:50;;;;;;;;;;;;;;;;;;5015903;28;19909;-72
2022/05/08 00:31:16;;;;;;;;;;;;;;;;;;5016214;28;19909;-72
2022/05/08 00:33:42;;;;;;;;;;;;;;;;;;5015587;28;19910;-72
2022/05/08 00:36:08;;;;;;;;;;;;;;;;;;5015820;28;19924;-72
2022/05/08 00:38:34;;;;;;;;;;;;;;;;;;5015264;28;19910;-72
2022/05/08 00:41:00;;;;;;;;;;;;;;;;;;5015334;28;19909;-72
2022/05/08 00:43:31;;;;;;;;;;;;;;;;;;5015962;28;19916;-72
2022/05/08 00:45:58;;;;;;;;;;;;;;;;;;5014879;28;19959;-72
2022/05/08 00:48:24;;;;;;;;;;;;;;;;;;5017857;28;19944;-72
2022/05/08 00:50:50;;;;;;;;;;;;;;;;;;5019580;28;19944;-72
2022/05/08 00:53:16;;;;;;;;;;;;;;;;;;5020049;28;20321;-72
2022/05/08 00:55:42;;;;;;;;;;;;;;;;;;5019082;28;19963;-72
2022/05/08 00:58:08;;;;;;;;;;;;;;;;;;5019262;28;20008;-72
2022/05/08 01:00:34;;;;;;;;;;;;;;;;;;5019099;28;19999;-72
2022/05/08 01:03:00;;;;;;;;;;;;;;;;;;5019379;28;19910;-72
2022/05/08 01:05:25;;;;;;;;;;;;;;;;;;5019874;28;19909;-72
2022/05/08 01:07:53;;;;;;;;;;;;;;;;;;5018938;28;20426;-72
2022/05/08 01:10:19;;;;;;;;;;;;;;;;;;5018930;28;19909;-72
2022/05/08 01:12:45;;;;;;;;;;;;;;;;;;5018469;28;19909;-72
2022/05/08 01:15:11;;;;;;;;;;;;;;;;;;5018771;28;20375;-72
2022/05/08 01:17:37;;;;;;;;;;;;;;;;;;5018708;28;20004;-72
2022/05/08 01:20:03;;;;;;;;;;;;;;;;;;5019020;28;19963;-72
2022/05/08 01:22:28;;;;;;;;;;;;;;;;;;5018635;28;19917;-72
2022/05/08 01:24:55;;;;;;;;;;;;;;;;;;5018660;28;20280;-72
2022/05/08 01:27:21;;;;;;;;;;;;;;;;;;5018806;28;19918;-72
2022/05/08 01:29:47;;;;;;;;;;;;;;;;;;5018867;28;19916;-72
2022/05/08 01:32:13;;;;;;;;;;;;;;;;;;5018558;28;19944;-72
2022/05/08 01:34:38;;;;;;;;;;;;;;;;;;5019099;28;19917;-72
2022/05/08 01:37:04;;;;;;;;;;;;;;;;;;5019344;28;20332;-72
2022/05/08 01:39:30;;;;;;;;;;;;;;;;;;5018390;28;19909;-72
2022/05/08 01:41:56;;;;;;;;;;;;;;;;;;5018583;28;19916;-72
2022/05/08 01:44:24;;;;;;;;;;;;;;;;;;5018287;28;19909;-72
2022/05/08 01:48:21;;;;;;;;;;;;;;;;;;5018864;28;20348;-72
2022/05/08 01:49:35;;;;;;;;;;;;;;;;;;5018085;28;19948;-72
2022/05/08 01:52:01;;;;;;;;;;;;;;;;;;5018997;28;19916;-72
2022/05/08 01:54:28;;;;;;;;;;;;;;;;;;5018588;28;19944;-72
2022/05/08 01:56:54;;;;;;;;;;;;;;;;;;5017663;28;20279;-72
2022/05/08 01:59:20;;;;;;;;;;;;;;;;;;5017465;28;19913;-72
2022/05/08 02:01:46;;;;;;;;;;;;;;;;;;5018260;28;19916;-72
2022/05/08 02:04:15;;;;;;;;;;;;;;;;;;5017963;28;19909;-72
2022/05/08 02:06:41;;;;;;;;;;;;;;;;;;5018100;28;19916;-72
2022/05/08 02:09:07;;;;;;;;;;;;;;;;;;5017843;28;19913;-72
2022/05/08 02:11:33;;;;;;;;;;;;;;;;;;5000299;28;19971;-72
2022/05/08 02:13:59;;;;;;;;;;;;;;;;;;5017887;28;19909;-72
2022/05/08 02:16:25;;;;;;;;;;;;;;;;;;5018278;28;19913;-72
2022/05/08 02:18:51;;;;;;;;;;;;;;;;;;5017660;28;19920;-72
2022/05/08 02:21:17;;;;;;;;;;;;;;;;;;5018455;28;19955;-72
2022/05/08 02:23:43;;;;;;;;;;;;;;;;;;5017831;28;19910;-72
2022/05/08 02:26:09;;;;;;;;;;;;;;;;;;5017111;28;19964;-72
2022/05/08 02:28:35;;;;;;;;;;;;;;;;;;5018395;28;19909;-72
2022/05/08 02:31:01;;;;;;;;;;;;;;;;;;5017624;28;19917;-72
2022/05/08 02:33:27;;;;;;;;;;;;;;;;;;5017977;28;19917;-72
2022/05/08 02:35:53;;;;;;;;;;;;;;;;;;5017343;28;20379;-72
2022/05/08 02:38:19;;;;;;;;;;;;;;;;;;5017285;28;19917;-72
2022/05/08 02:40:45;;;;;;;;;;;;;;;;;;5017384;28;19956;-72
2022/05/08 02:43:11;;;;;;;;;;;;;;;;;;5017201;28;20284;-72
2022/05/08 02:45:37;;;;;;;;;;;;;;;;;;5017161;28;19937;-72
2022/05/08 02:48:03;;;;;;;;;;;;;;;;;;5017388;28;19929;-72
2022/05/08 02:50:29;;;;;;;;;;;;;;;;;;5017896;28;20241;-72
2022/05/08 02:52:55;;;;;;;;;;;;;;;;;;5017284;28;19980;-72
2022/05/08 03:00:50;;;;;;;;;;;;;;;;;;5016971;28;20306;-72
2022/05/08 03:03:17;;;;;;;;;;;;;;;;;;5017478;28;19909;-72
2022/05/08 03:05:43;;;;;;;;;;;;;;;;;;5017266;28;19914;-72
2022/05/08 03:08:09;;;;;;;;;;;;;;;;;;5017015;28;19991;-72
2022/05/08 03:13:20;;;;;;;;;;;;;;;;;;5016609;28;19963;-72
2022/05/08 03:15:46;;;;;;;;;;;;;;;;;;5016780;28;19920;-72
2022/05/08 03:18:12;;;;;;;;;;;;;;;;;;5016546;28;19913;-72
2022/05/08 03:20:37;;;;;;;;;;;;;;;;;;5016800;28;19940;-72
2022/05/08 03:23:04;;;;;;;;;;;;;;;;;;5016529;28;19998;-72
2022/05/08 03:25:29;;;;;;;;;;;;;;;;;;5016990;28;20324;-72
2022/05/08 03:27:55;;;;;;;;;;;;;;;;;;5015858;28;19917;-72
2022/05/08 03:30:21;;;;;;;;;;;;;;;;;;5016103;28;20271;-72
2022/05/08 03:32:47;;;;;;;;;;;;;;;;;;5016277;28;19920;-72
2022/05/08 03:35:13;;;;;;;;;;;;;;;;;;5016346;28;19957;-72
2022/05/08 03:37:39;;;;;;;;;;;;;;;;;;5016541;28;20016;-72
2022/05/08 03:40:05;;;;;;;;;;;;;;;;;;5015865;28;19956;-72
2022/05/08 03:42:31;;;;;;;;;;;;;;;;;;4998297;28;19910;-72
2022/05/08 03:44:57;;;;;;;;;;;;;;;;;;5015820;28;20379;-72
2022/05/08 03:47:23;;;;;;;;;;;;;;;;;;5016386;28;19952;-72
2022/05/08 03:49:49;;;;;;;;;;;;;;;;;;5015701;28;19955;-72
2022/05/08 03:52:15;;;;;;;;;;;;;;;;;;5015729;28;19909;-72
2022/05/08 03:54:41;;;;;;;;;;;;;;;;;;5016130;28;19920;-72
2022/05/08 03:57:07;;;;;;;;;;;;;;;;;;5015453;28;19917;-72
2022/05/08 03:59:33;;;;;;;;;;;;;;;;;;5016106;28;20291;-72
2022/05/08 04:01:59;;;;;;;;;;;;;;;;;;5015766;28;19936;-72
2022/05/08 04:04:25;;;;;;;;;;;;;;;;;;5016011;28;19917;-72
2022/05/08 04:06:51;;;;;;;;;;;;;;;;;;5015999;28;20033;-72
2022/05/08 04:09:17;;;;;;;;;;;;;;;;;;5015365;28;20012;-72
2022/05/08 04:11:43;;;;;;;;;;;;;;;;;;5015203;28;19916;-72
2022/05/08 04:14:09;;;;;;;;;;;;;;;;;;5015958;28;19916;-72
2022/05/08 04:16:35;;;;;;;;;;;;;;;;;;5015281;28;20387;-72
2022/05/08 04:19:01;;;;;;;;;;;;;;;;;;5015236;28;19909;-72
2022/05/08 04:21:27;;;;;;;;;;;;;;;;;;5015152;28;19962;-72
2022/05/08 04:26:38;;;;;;;;;;;;;;;;;;5014836;28;19928;-72
2022/05/08 04:29:04;;;;;;;;;;;;;;;;;;5015602;28;19909;-72
2022/05/08 04:31:30;;;;;;;;;;;;;;;;;;5015324;28;19909;-72
2022/05/08 04:33:56;;;;;;;;;;;;;;;;;;5015292;28;19917;-72
2022/05/08 04:36:22;;;;;;;;;;;;;;;;;;5015842;28;19940;-72
2022/05/08 04:38:48;;;;;;;;;;;;;;;;;;5015279;28;20299;-72
2022/05/08 04:41:14;;;;;;;;;;;;;;;;;;5014808;28;19909;-72
2022/05/08 04:43:40;;;;;;;;;;;;;;;;;;5015248;28;20263;-72
2022/05/08 04:46:06;;;;;;;;;;;;;;;;;;5015124;28;19909;-72
2022/05/08 04:48:32;;;;;;;;;;;;;;;;;;5015149;28;20266;-72
2022/05/08 04:50:58;;;;;;;;;;;;;;;;;;5014887;28;19919;-72
2022/05/08 04:53:24;;;;;;;;;;;;;;;;;;5014869;28;19909;-72
2022/05/08 04:55:50;;;;;;;;;;;;;;;;;;5015206;28;20001;-72
2022/05/08 04:58:16;;;;;;;;;;;;;;;;;;5015093;28;19983;-72
2022/05/08 05:00:42;;;;;;;;;;;;;;;;;;5014823;28;19909;-72
2022/05/08 05:03:08;;;;;;;;;;;;;;;;;;5015018;28;19920;-72
2022/05/08 05:05:34;;;;;;;;;;;;;;;;;;5015581;28;20259;-72
2022/05/08 05:08:00;;;;;;;;;;;;;;;;;;5015057;28;19909;-72
2022/05/08 05:10:26;;;;;;;;;;;;;;;;;;5014962;28;20272;-72
2022/05/08 05:12:52;;;;;;;;;;;;;;;;;;5015003;28;20000;-72
2022/05/08 05:15:18;;;;;;;;;;;;;;;;;;5014869;28;19921;-72
2022/05/08 05:17:44;;;;;;;;;;;;;;;;;;5015258;28;20340;-72
2022/05/08 05:20:10;;;;;;;;;;;;;;;;;;5014577;28;19960;-72
2022/05/08 05:22:36;;;;;;;;;;;;;;;;;;5014629;28;19936;-72
2022/05/08 05:25:03;;;;;;;;;;;;;;;;;;5014573;28;19949;-72
2022/05/08 05:27:29;;;;;;;;;;;;;;;;;;5015000;28;20320;-72
2022/05/08 05:29:55;;;;;;;;;;;;;;;;;;5014976;28;20051;-72
2022/05/08 05:32:21;;;;;;;;;;;;;;;;;;5015332;28;19909;-72
2022/05/08 05:34:47;;;;;;;;;;;;;;;;;;5017571;28;19913;-72
2022/05/08 05:37:13;;;;;;;;;;;;;;;;;;5019329;28;19913;-72
2022/05/08 05:39:39;;;;;;;;;;;;;;;;;;5018682;28;19936;-72
2022/05/08 05:42:05;;;;;;;;;;;;;;;;;;5018682;28;19910;-72
2022/05/08 05:44:31;;;;;;;;;;;;;;;;;;5019145;28;19915;-72
2022/05/08 05:49:41;;;;;;;;;;;;;;;;;;5017998;28;20402;-72
2022/05/08 05:52:08;;;;;;;;;;;;;;;;;;5018465;28;20003;-72
2022/05/08 05:54:34;;;;;;;;;;;;;;;;;;5018325;28;19913;-72
2022/05/08 05:56:59;;;;;;;;;;;;;;;;;;5018289;28;20012;-72
2022/05/08 05:59:25;;;;;;;;;;;;;;;;;;5018312;28;19909;-72
2022/05/08 06:01:54;;;;;;;;;;;;;;;;;;5017985;28;19963;-72
2022/05/08 06:04:20;;;;;;;;;;;;;;;;;;5018235;28;19936;-72
2022/05/08 06:06:46;;;;;;;;;;;;;;;;;;5018800;28;20333;-72
2022/05/08 06:09:12;;;;;;;;;;;;;;;;;;5017826;28;19910;-72
2022/05/08 06:11:38;;;;;;;;;;;;;;;;;;5017655;28;19955;-72
2022/05/08 06:14:04;;;;;;;;;;;;;;;;;;5018310;28;19909;-72
2022/05/08 06:16:35;;;;;;;;;;;;;;;;;;5017688;28;20056;-72
2022/05/08 06:19:01;;;;;;;;;;;;;;;;;;5017940;28;19913;-72
2022/05/08 06:21:27;;;;;;;;;;;;;;;;;;5017866;28;20371;-72
2022/05/08 06:23:56;;;;;;;;;;;;;;;;;;5017837;28;19935;-72
2022/05/08 06:26:22;;;;;;;;;;;;;;;;;;5000396;28;20020;-72
2022/05/08 06:28:48;;;;;;;;;;;;;;;;;;5017485;28;20380;-72
2022/05/08 06:31:16;;;;;;;;;;;;;;;;;;5017435;28;20004;-72
2022/05/08 06:33:43;;;;;;;;;;;;;;;;;;5017379;28;20346;-72
2022/05/08 06:36:09;;;;;;;;;;;;;;;;;;5017383;28;20315;-72
2022/05/08 06:38:35;;;;;;;;;;;;;;;;;;4999985;28;19917;-73
2022/05/08 06:43:35;;;;;;;;;;;;;;;;;;4995964;28;19956;-68
2022/05/08 06:46:01;;;;;;;;;;;;;;;;;;4997423;28;19914;-69
2022/05/08 06:48:27;;;;;;;;;;;;;;;;;;4998424;28;20324;-68
2022/05/08 06:50:53;;;;;;;;;;;;;;;;;;4997543;28;20048;-69
2022/05/08 06:53:19;;;;;;;;;;;;;;;;;;4998051;28;19949;-69
2022/05/08 06:55:45;;;;;;;;;;;;;;;;;;4997655;28;19914;-69
2022/05/08 06:58:12;;;;;;;;;;;;;;;;;;4997499;28;19924;-68
2022/05/08 07:03:23;;;;;;;;;;;;;;;;;;4997113;28;19936;-68
2022/05/08 07:05:49;;;;;;;;;;;;;;;;;;4997214;28;20344;-69
2022/05/08 07:08:15;;;;;;;;;;;;;;;;;;4998043;28;19913;-68
2022/05/08 07:10:41;;;;;;;;;;;;;;;;;;4997408;28;20272;-69
2022/05/08 07:13:07;;;;;;;;;;;;;;;;;;4997317;28;19916;-69
2022/05/08 07:15:33;;;;;;;;;;;;;;;;;;4997030;28;20271;-69
2022/05/08 07:17:59;;;;;;;;;;;;;;;;;;4996998;28;19921;-69
2022/05/08 07:20:25;;;;;;;;;;;;;;;;;;4997786;28;19960;-70
2022/05/08 07:22:51;;;;;;;;;;;;;;;;;;4997264;28;19916;-68
2022/05/08 07:25:17;;;;;;;;;;;;;;;;;;4997066;28;19917;-69
2022/05/08 07:27:43;;;;;;;;;;;;;;;;;;4979427;28;19916;-69
2022/05/08 07:30:09;;;;;;;;;;;;;;;;;;4997063;28;19910;-69
2022/05/08 07:32:34;;;;;;;;;;;;;;;;;;4997657;28;20363;-68
2022/05/08 07:37:45;;;;;;;;;;;;;;;;;;4996435;28;19916;-69
2022/05/08 07:40:11;;;;;;;;;;;;;;;;;;4996805;28;19913;-68
2022/05/08 07:42:37;;;;;;;;;;;;;;;;;;4996399;28;20410;-69
2022/05/08 07:45:03;;;;;;;;;;;;;;;;;;4996215;28;19909;-68
2022/05/08 07:47:29;;;;;;;;;;;;;;;;;;4996446;28;19917;-68
2022/05/08 07:49:55;;;;;;;;;;;;;;;;;;4996408;28;19909;-69
2022/05/08 07:52:21;;;;;;;;;;;;;;;;;;4996729;28;19983;-69
2022/05/08 07:54:47;;;;;;;;;;;;;;;;;;4996265;28;20431;-68
2022/05/08 07:57:13;;;;;;;;;;;;;;;;;;4995306;28;20272;-69
2022/05/08 07:59:39;;;;;;;;;;;;;;;;;;4996230;28;19916;-69
2022/05/08 08:02:05;;;;;;;;;;;;;;;;;;4995935;28;19914;-69
2022/05/08 08:04:31;;;;;;;;;;;;;;;;;;4996404;28;19910;-68
2022/05/08 08:06:57;;;;;;;;;;;;;;;;;;4995849;28;19945;-69
2022/05/08 08:09:23;;;;;;;;;;;;;;;;;;4996156;28;19910;-69
2022/05/08 08:11:49;;;;;;;;;;;;;;;;;;4996263;28;19909;-69
2022/05/08 08:14:15;;;;;;;;;;;;;;;;;;4995882;28;20000;-69
2022/05/08 08:16:41;;;;;;;;;;;;;;;;;;4995699;28;20014;-69
2022/05/08 08:19:07;;;;;;;;;;;;;;;;;;4995871;28;19979;-69
2022/05/08 08:21:33;;;;;;;;;;;;;;;;;;4996245;28;19949;-69
2022/05/08 08:23:59;;;;;;;;;;;;;;;;;;4995500;28;19910;-69
2022/05/08 08:26:25;;;;;;;;;;;;;;;;;;4995382;28;19910;-69
2022/05/08 08:28:51;;;;;;;;;;;;;;;;;;4995665;28;19910;-69
2022/05/08 08:31:17;;;;;;;;;;;;;;;;;;4996389;28;19917;-69
2022/05/08 08:33:44;;;;;;;;;;;;;;;;;;4995490;28;19910;-69
2022/05/08 08:36:10;;;;;;;;;;;;;;;;;;4995261;28;20303;-69
2022/05/08 08:38:36;;;;;;;;;;;;;;;;;;4995708;28;19917;-69
2022/05/08 08:41:04;;;;;;;;;;;;;;;;;;4995585;28;20088;-69
2022/05/08 08:43:30;;;;;;;;;;;;;;;;;;4996035;28;19956;-69
2022/05/08 08:48:40;;;;;;;;;;;;;;;;;;4995391;28;19917;-69
2022/05/08 08:51:06;;;;;;;;;;;;;;;;;;4996130;28;19914;-69
2022/05/08 08:53:32;;;;;;;;;;;;;;;;;;4995828;28;19910;-69
2022/05/08 08:56:01;;;;;;;;;;;;;;;;;;4995435;28;19914;-69
2022/05/08 08:58:26;;;;;;;;;;;;;;;;;;4996530;28;19913;-69
2022/05/08 09:00:52;;;;;;;;;;;;;;;;;;4995870;28;19913;-69
2022/05/08 09:03:19;;;;;;;;;;;;;;;;;;4996324;28;19945;-69
2022/05/08 09:05:45;;;;;;;;;;;;;;;;;;4995665;28;19910;-69
2022/05/08 09:08:11;;;;;;;;;;;;;;;;;;4996252;28;19910;-69
2022/05/08 09:10:37;;;;;;;;;;;;;;;;;;4999622;28;19932;-69
2022/05/08 09:13:03;;;;;;;;;;;;;;;;;;4999577;28;20348;-69
2022/05/08 09:15:29;;;;;;;;;;;;;;;;;;4999733;28;19914;-69
2022/05/08 09:17:55;;;;;;;;;;;;;;;;;;4999511;28;19920;-69
2022/05/08 09:20:21;;;;;;;;;;;;;;;;;;4999769;28;19910;-69
2022/05/08 09:22:47;;;;;;;;;;;;;;;;;;4999449;28;19910;-69
2022/05/08 09:25:13;;;;;;;;;;;;;;;;;;4999355;28;19909;-69
2022/05/08 09:27:39;;;;;;;;;;;;;;;;;;4999016;28;19910;-69
2022/05/08 09:30:05;;;;;;;;;;;;;;;;;;4999849;28;19913;-69
2022/05/08 09:32:31;;;;;;;;;;;;;;;;;;4999004;28;20344;-70
2022/05/08 09:34:57;;;;;;;;;;;;;;;;;;4999165;28;20256;-69
2022/05/08 09:37:23;;;;;;;;;;;;;;;;;;4999155;28;19914;-69
2022/05/08 09:39:49;;;;;;;;;;;;;;;;;;4999370;28;19964;-69
2022/05/08 09:42:15;;;;;;;;;;;;;;;;;;4999198;28;19924;-69
2022/05/08 09:44:42;;;;;;;;;;;;;;;;;;4998729;28;19909;-69
2022/05/08 09:47:08;;;;;;;;;;;;;;;;;;4998615;28;19916;-69
2022/05/08 09:49:34;;;;;;;;;;;;;;;;;;4998368;28;19914;-69
2022/05/08 09:52:00;;;;;;;;;;;;;;;;;;4998643;28;19916;-69
2022/05/08 09:54:26;;;;;;;;;;;;;;;;;;4998197;28;19968;-69
2022/05/08 09:56:52;;;;;;;;;;;;;;;;;;4998167;28;19921;-69
2022/05/08 09:59:19;;;;;;;;;;;;;;;;;;4998499;28;19910;-69
2022/05/08 10:01:45;;;;;;;;;;;;;;;;;;4998116;28;19909;-69
2022/05/08 10:04:11;;;;;;;;;;;;;;;;;;4998136;28;19965;-69
2022/05/08 10:06:37;;;;;;;;;;;;;;;;;;4998071;28;19953;-69
2022/05/08 10:14:35;;;;;;;;;;;;;;;;;;4997653;28;19944;-69
2022/05/08 10:17:04;;;;;;;;;;;;;;;;;;4980771;28;19913;-69
2022/05/08 10:19:30;;;;;;;;;;;;;;;;;;4998139;28;19910;-69
2022/05/08 10:22:03;;;;;;;;;;;;;;;;;;4997205;28;19968;-69
2022/05/08 10:24:30;;;;;;;;;;;;;;;;;;4997647;28;19917;-69
2022/05/08 10:26:56;;;;;;;;;;;;;;;;;;4997682;28;19913;-69
2022/05/08 10:29:22;;;;;;;;;;;;;;;;;;4998248;28;20363;-69
2022/05/08 10:31:48;;;;;;;;;;;;;;;;;;4998263;28;20371;-69
2022/05/08 10:34:14;;;;;;;;;;;;;;;;;;4997477;28;19910;-69
2022/05/08 10:36:43;;;;;;;;;;;;;;;;;;4998012;28;19940;-69
2022/05/08 10:39:09;;;;;;;;;;;;;;;;;;4997765;28;19914;-69
2022/05/08 10:41:35;;;;;;;;;;;;;;;;;;4997773;28;20382;-69
2022/05/08 10:44:01;;;;;;;;;;;;;;;;;;4998295;28;19910;-69
2022/05/08 10:46:27;;;;;;;;;;;;;;;;;;4997581;28;19930;-69
2022/05/08 10:48:54;;;;;;;;;;;;;;;;;;4997513;28;19956;-69
2022/05/08 10:51:20;;;;;;;;;;;;;;;;;;4998095;28;19914;-69
2022/05/08 10:53:46;;;;;;;;;;;;;;;;;;4998354;28;20383;-69
2022/05/08 10:56:14;;;;;;;;;;;;;;;;;;4997431;28;19913;-69
2022/05/08 10:58:42;;;;;;;;;;;;;;;;;;4997593;28;19921;-69
2022/05/08 11:01:11;;;;;;;;;;;;;;;;;;4997989;28;20048;-69
2022/05/08 11:03:37;;;;;;;;;;;;;;;;;;4997307;28;19965;-69
2022/05/08 11:06:04;;;;;;;;;;;;;;;;;;4997728;28;19953;-69
2022/05/08 11:08:31;;;;;;;;;;;;;;;;;;4997141;28;20450;-69
2022/05/08 11:10:57;;;;;;;;;;;;;;;;;;4997661;28;19996;-69
2022/05/08 11:13:23;;;;;;;;;;;;;;;;;;4997132;28;19909;-69
2022/05/08 11:15:49;;;;;;;;;;;;;;;;;;4997284;28;19913;-69
2022/05/08 11:18:15;;;;;;;;;;;;;;;;;;4997343;28;19968;-69
2022/05/08 11:20:41;;;;;;;;;;;;;;;;;;4997830;28;20329;-69
2022/05/08 11:23:07;;;;;;;;;;;;;;;;;;4996976;28;20368;-69
2022/05/08 11:25:33;;;;;;;;;;;;;;;;;;4997107;28;19938;-69
2022/05/08 11:27:59;;;;;;;;;;;;;;;;;;4996974;28;20313;-69
2022/05/08 11:30:25;;;;;;;;;;;;;;;;;;4997841;28;19916;-69
2022/05/08 11:38:22;;;;;;;;;;;;;;;;;;4996527;28;20012;-69
2022/05/08 11:40:48;;;;;;;;;;;;;;;;;;4996578;28;20004;-69
2022/05/08 11:43:14;;;;;;;;;;;;;;;;;;4996120;28;20004;-69
2022/05/08 11:45:40;;;;;;;;;;;;;;;;;;4996093;28;19917;-69
2022/05/08 11:48:06;;;;;;;;;;;;;;;;;;4995901;28;19913;-69
2022/05/08 11:50:32;;;;;;;;;;;;;;;;;;4996570;28;20234;-69
2022/05/08 11:52:58;;;;;;;;;;;;;;;;;;4996705;28;19964;-69
2022/05/08 11:55:24;;;;;;;;;;;;;;;;;;4996422;28;19914;-69
2022/05/08 11:57:50;;;;;;;;;;;;;;;;;;4996048;28;20466;-69
2022/05/08 12:00:16;;;;;;;;;;;;;;;;;;4996253;28;20391;-69
2022/05/08 12:02:42;;;;;;;;;;;;;;;;;;4996517;28;19909;-69
2022/05/08 12:05:08;;;;;;;;;;;;;;;;;;4979188;28;20300;-69
2022/05/08 12:07:34;;;;;;;;;;;;;;;;;;4996265;28;19952;-69
2022/05/08 12:10:00;;;;;;;;;;;;;;;;;;4995804;28;20009;-69
2022/05/08 12:12:26;;;;;;;;;;;;;;;;;;4996013;28;19957;-69
2022/05/08 12:14:52;;;;;;;;;;;;;;;;;;4995656;28;19914;-69
2022/05/08 12:17:20;;;;;;;;;;;;;;;;;;4995932;28;19921;-69
2022/05/08 12:19:45;;;;;;;;;;;;;;;;;;4995812;28;19910;-69
2022/05/08 12:22:11;;;;;;;;;;;;;;;;;;4996080;28;20268;-69
2022/05/08 12:24:37;;;;;;;;;;;;;;;;;;4995763;28;19910;-69
2022/05/08 12:27:03;;;;;;;;;;;;;;;;;;4995472;28;19917;-69
2022/05/08 12:29:29;;;;;;;;;;;;;;;;;;4995838;28;19956;-69
2022/05/08 12:31:55;;;;;;;;;;;;;;;;;;4996126;28;19948;-69
2022/05/08 12:34:21;;;;;;;;;;;;;;;;;;4995742;28;20367;-69
2022/05/08 12:36:48;;;;;;;;;;;;;;;;;;4995820;28;20264;-69
2022/05/08 12:39:14;;;;;;;;;;;;;;;;;;4995975;28;20298;-69
2022/05/08 12:41:40;;;;;;;;;;;;;;;;;;4995067;28;19918;-69
2022/05/08 12:44:06;;;;;;;;;;;;;;;;;;4995980;28;19910;-69
2022/05/08 12:46:32;;;;;;;;;;;;;;;;;;4995617;28;20339;-69
2022/05/08 12:49:04;;;;;;;;;;;;;;;;;;4995611;28;19972;-69
2022/05/08 12:51:30;;;;;;;;;;;;;;;;;;4995901;28;20411;-69
2022/05/08 12:53:55;;;;;;;;;;;;;;;;;;4995473;28;19910;-69
2022/05/08 12:56:21;;;;;;;;;;;;;;;;;;4995266;28;19914;-69
2022/05/08 13:01:33;;;;;;;;;;;;;;;;;;4994968;28;19965;-69
2022/05/08 13:03:59;;;;;;;;;;;;;;;;;;4995409;28;19913;-69
2022/05/08 13:06:25;;;;;;;;;;;;;;;;;;4995358;28;20299;-69
2022/05/08 13:08:53;;;;;;;;;;;;;;;;;;4995977;28;19917;-69
2022/05/08 13:11:19;;;;;;;;;;;;;;;;;;4994984;28;20364;-69
2022/05/08 13:13:45;;;;;;;;;;;;;;;;;;4995582;28;19916;-69
2022/05/08 13:16:14;;;;;;;;;;;;;;;;;;4995557;28;19914;-69
2022/05/08 13:18:40;;;;;;;;;;;;;;;;;;4995309;28;19941;-69
2022/05/08 13:21:06;;;;;;;;;;;;;;;;;;4995916;28;20324;-69
2022/05/08 13:23:32;;;;;;;;;;;;;;;;;;4995321;28;19910;-69
2022/05/08 13:25:58;;;;;;;;;;;;;;;;;;4994731;28;19976;-69
2022/05/08 13:28:24;;;;;;;;;;;;;;;;;;4994961;28;20008;-69
2022/05/08 13:30:50;;;;;;;;;;;;;;;;;;4995804;28;19917;-69
2022/05/08 13:33:16;;;;;;;;;;;;;;;;;;4995793;28;19941;-69
2022/05/08 13:35:42;;;;;;;;;;;;;;;;;;4994849;28;19914;-69
2022/05/08 13:38:08;;;;;;;;;;;;;;;;;;4995064;28;19937;-69
2022/05/08 13:40:34;;;;;;;;;;;;;;;;;;4994876;28;19910;-69
2022/05/08 13:43:00;;;;;;;;;;;;;;;;;;4994591;28;19925;-69
2022/05/08 13:45:26;;;;;;;;;;;;;;;;;;4995082;28;19910;-69
2022/05/08 13:47:52;;;;;;;;;;;;;;;;;;4995337;28;20364;-72
2022/05/08 13:50:18;;;;;;;;;;;;;;;;;;4995349;28;19950;-72
2022/05/08 13:52:45;;;;;;;;;;;;;;;;;;4995271;28;19910;-69
2022/05/08 13:55:14;;;;;;;;;;;;;;;;;;4995139;28;20012;-69
2022/05/08 13:57:40;;;;;;;;;;;;;;;;;;4998014;28;19972;-69
2022/05/08 14:00:11;;;;;;;;;;;;;;;;;;4999051;28;20313;-69
2022/05/08 14:02:37;;;;;;;;;;;;;;;;;;4998219;28;19996;-69
2022/05/08 14:05:03;;;;;;;;;;;;;;;;;;4998994;28;19963;-69
2022/05/08 14:07:29;;;;;;;;;;;;;;;;;;4998252;28;19910;-69
2022/05/08 14:09:55;;;;;;;;;;;;;;;;;;4998360;28;19959;-69
2022/05/08 14:12:21;;;;;;;;;;;;;;;;;;4998089;28;19917;-69
2022/05/08 14:14:47;;;;;;;;;;;;;;;;;;4998173;28;19910;-69
2022/05/08 14:17:14;;;;;;;;;;;;;;;;;;4998189;28;19917;-69
2022/05/08 14:19:39;;;;;;;;;;;;;;;;;;4998175;28;19909;-69
2022/05/08 14:22:05;;;;;;;;;;;;;;;;;;4998558;28;20272;-69
2022/05/08 14:24:33;;;;;;;;;;;;;;;;;;4998093;28;19953;-69
2022/05/08 14:27:00;;;;;;;;;;;;;;;;;;4997576;28;19996;-69
2022/05/08 14:29:26;;;;;;;;;;;;;;;;;;4998239;28;19917;-69
2022/05/08 14:37:21;;;;;;;;;;;;;;;;;;4997355;28;19920;-69
2022/05/08 14:39:47;;;;;;;;;;;;;;;;;;4997828;28;19910;-69
2022/05/08 14:42:14;;;;;;;;;;;;;;;;;;4997499;28;19922;-69
2022/05/08 14:44:40;;;;;;;;;;;;;;;;;;4997604;28;19910;-69
2022/05/08 14:47:06;;;;;;;;;;;;;;;;;;4997661;28;19914;-69
2022/05/08 14:49:32;;;;;;;;;;;;;;;;;;4997320;28;19910;-70
2022/05/08 14:51:58;;;;;;;;;;;;;;;;;;4997893;28;19910;-69
2022/05/08 14:54:24;;;;;;;;;;;;;;;;;;4997420;28;20264;-69
2022/05/08 14:56:50;;;;;;;;;;;;;;;;;;4996868;28;19913;-69
2022/05/08 14:59:16;;;;;;;;;;;;;;;;;;4997405;28;19915;-69
2022/05/08 15:01:42;;;;;;;;;;;;;;;;;;4997410;28;19909;-70
2022/05/08 15:04:08;;;;;;;;;;;;;;;;;;4996941;28;19910;-69
2022/05/08 15:06:34;;;;;;;;;;;;;;;;;;4997144;28;19909;-69
2022/05/08 15:09:01;;;;;;;;;;;;;;;;;;4996963;28;20056;-69
2022/05/08 15:11:27;;;;;;;;;;;;;;;;;;4996701;28;19910;-70
2022/05/08 15:13:53;;;;;;;;;;;;;;;;;;4996866;28;19910;-69
2022/05/08 15:16:19;;;;;;;;;;;;;;;;;;4996720;28;19949;-69
2022/05/08 15:18:48;;;;;;;;;;;;;;;;;;4996955;28;19961;-69
2022/05/08 15:21:14;;;;;;;;;;;;;;;;;;4996934;28;19910;-69
2022/05/08 15:23:41;;;;;;;;;;;;;;;;;;4996931;28;19916;-69
2022/05/08 15:26:07;;;;;;;;;;;;;;;;;;4997165;28;19917;-69
2022/05/08 15:28:33;;;;;;;;;;;;;;;;;;4996563;28;20423;-69
2022/05/08 15:30:59;;;;;;;;;;;;;;;;;;4993698;28;20004;-72
2022/05/08 15:33:25;;;;;;;;;;;;;;;;;;4976609;28;19910;-75
2022/05/08 15:35:51;;;;;;;;;;;;;;;;;;4977060;28;19914;-73
2022/05/08 15:38:17;;;;;;;;;;;;;;;;;;4979660;28;19921;-72
2022/05/08 15:40:43;;;;;;;;;;;;;;;;;;4979375;28;19910;-72
2022/05/08 15:43:14;;;;;;;;;;;;;;;;;;4976571;28;19961;-72
2022/05/08 15:45:41;;;;;;;;;;;;;;;;;;4976539;28;19914;-72
2022/05/08 15:48:06;;;;;;;;;;;;;;;;;;4977008;28;19956;-71
2022/05/08 15:50:33;;;;;;;;;;;;;;;;;;4976996;28;19910;-72
2022/05/08 15:52:58;;;;;;;;;;;;;;;;;;4990337;28;20407;-71
2022/05/08 15:55:26;;;;;;;;;;;;;;;;;;4989504;28;19961;-72
2022/05/08 15:57:52;;;;;;;;;;;;;;;;;;4977464;28;19939;-72
2022/05/08 16:00:18;;;;;;;;;;;;;;;;;;4976089;28;20027;-74
2022/05/08 16:02:44;;;;;;;;;;;;;;;;;;4979686;28;19917;-73
2022/05/08 16:05:12;;;;;;;;;;;;;;;;;;4965651;28;19917;-73
2022/05/08 16:07:38;;;;;;;;;;;;;;;;;;4976340;28;19917;-73
2022/05/08 16:10:04;;;;;;;;;;;;;;;;;;4979793;28;19910;-72
2022/05/08 16:23:29;;;;;;;;;;;;;;;;;;4975675;28;19961;-71
2022/05/08 16:25:55;;;;;;;;;;;;;;;;;;4979403;28;19997;-72
2022/05/08 16:28:21;;;;;;;;;;;;;;;;;;4983985;28;20006;-71
2022/05/08 16:30:47;;;;;;;;;;;;;;;;;;4985410;28;20356;-71
2022/05/08 16:33:21;;;;;;;;;;;;;;;;;;4984791;28;19914;-71
2022/05/08 16:35:49;;;;;;;;;;;;;;;;;;4977598;28;19917;-71
2022/05/08 16:38:21;;;;;;;;;;;;;;;;;;4974926;28;20357;-71
2022/05/08 16:40:47;;;;;;;;;;;;;;;;;;4957518;28;19914;-71
2022/05/08 16:43:20;;;;;;;;;;;;;;;;;;4974380;28;19918;-72
2022/05/08 16:45:46;;;;;;;;;;;;;;;;;;4957174;28;20397;-71
2022/05/08 16:48:33;;;;;;;;;;;;;;;;;;4958234;28;19952;-72
2022/05/08 16:51:21;;;;;;;;;;;;;;;;;;4974065;28;19910;-72
2022/05/08 16:53:50;;;;;;;;;;;;;;;;;;4957927;28;19921;-71
2022/05/08 16:56:16;;;;;;;;;;;;;;;;;;4956795;28;20121;-71
2022/05/08 16:58:42;;;;;;;;;;;;;;;;;;4958024;28;19965;-72
2022/05/08 17:01:08;;;;;;;;;;;;;;;;;;4957838;28;19917;-71
2022/05/08 17:03:34;;;;;;;;;;;;;;;;;;4975391;28;19910;-71
2022/05/08 17:06:00;;;;;;;;;;;;;;;;;;4958149;28;20403;-71
2022/05/08 17:08:30;;;;;;;;;;;;;;;;;;4975487;28;20000;-71
2022/05/08 17:10:56;;;;;;;;;;;;;;;;;;4956904;28;19917;-71
2022/05/08 17:13:22;;;;;;;;;;;;;;;;;;4975405;28;19914;-71
2022/05/08 17:15:48;;;;;;;;;;;;;;;;;;4975400;28;19914;-71
2022/05/08 17:18:14;;;;;;;;;;;;;;;;;;4975082;28;19918;-71
2022/05/08 17:20:40;;;;;;;;;;;;;;;;;;4957908;28;19917;-72
2022/05/08 17:23:08;;;;;;;;;;;;;;;;;;4975478;28;19918;-70
2022/05/08 17:25:34;;;;;;;;;;;;;;;;;;4974241;28;19909;-69
2022/05/08 17:30:44;;;;;;;;;;;;;;;;;;4977747;28;19925;-69
2022/05/08 17:33:10;;;;;;;;;;;;;;;;;;4978134;28;19910;-69
2022/05/08 17:35:36;;;;;;;;;;;;;;;;;;4978971;28;19922;-69
2022/05/08 17:38:02;;;;;;;;;;;;;;;;;;4978762;28;19917;-70